Heidrick, KY (40949)

05:43 EDT le 04 août 2015 (GMT -0400)
liford's | | Change Station
CLOSE
Current Station
Stations météorologiques personnelles
Location: Barbourville, KY
Altitude: 1066 ft
Stations météo à proximité

Alt. 1066 ft 36.84 °N, 83.85 °W | Updated 8 minutes ago

Partiellement nuageux
Partiellement nuageux
69.3 ° F
Paraît 69.3 ° F
N
0.0
Vent Variable Vent de ESE

Aujourd'hui
Haut(e) -- | Bas -- ° F
--% Risque de précip.
Hier
Haut(e) -- | Bas -- ° F
Precip. -- pouce
6:43 AM 8:39 PM
Lune gibbeuse décroissante, 79% visible
Pression 29.96 pouce
Visibilité 10.0 Miles terrestres
Nuages Ciel dégagé
Point de rosée 69 ° F
Humidité 99%
Précipitations 0.04 pouce
Profondeur de la couche neigeuse Non disponible.
UV 0 sur 12
Pollen 4.80 sur 12
Qualité de l'air Non disponible.
Flu Activity Non disponible.
METAR KLOZ 040853Z AUTO 00000KT 10SM CLR 21/17 A3000 RMK AO2 LTG DSNT S SLP143 60007 T02060172 51009

More Conditions Fewer Conditions

Pression 29.96 pouce
Visibilité 10.0 Miles terrestres
Nuages Ciel dégagé
Point de rosée 69 ° F
Humidité 99%
Précipitations 0.04 pouce
Profondeur de la couche neigeuse Non disponible.
UV 0 sur 12
Pollen 4.80 sur 12
Qualité de l'air Non disponible.
Flu Activity Non disponible.
METAR KLOZ 040853Z AUTO 00000KT 10SM CLR 21/17 A3000 RMK AO2 LTG DSNT S SLP143 60007 T02060172 51009

More Conditions Fewer Conditions

10-Day Weather Forecast

×

Almanac

Astronomie

Aug. 04, 2015 Lever Coucher
Temps réel
Crépuscule civil
Crépuscule nautique
Crépuscule astronomique
Lune
Durée de lumière visible
Longueur du jour
Tomorrow will be .
, % of the Moon is Illuminated

Extrêmes aujourd'hui

State Highs State Lows

Community

WunderPhotos

Upload Photos

1,843,880 Photos téléchargées !

WunderBlogs® & News

Nearby

Qualité de l'air

  Qualité de l'air Indice de la qualité de l'air Polluant
Not available.

Épaisseur de neige

Station Depth Altitude

Activité sismique

Ville Distance Mag. Time & Date
Minimum magnitude displayed is 2.5.

Températures des eaux côtières

Lieu Température

Stations

Stations météo à proximité

Emplacement de la station Température Refroidissement éolien Point de rosée Humidité Vent Precip. Alt. Mise à jour Type